sensor_id;sensor_type;location;lat;lon;timestamp;P1;durP1;ratioP1;P2;durP2;ratioP2
15712;SDS011;7957;51.608;6.916;2023-06-10T00:02:14;6.40;;;5.90;;
15712;SDS011;7957;51.608;6.916;2023-06-10T00:04:42;6.33;;;5.73;;
15712;SDS011;7957;51.608;6.916;2023-06-10T00:07:09;6.40;;;5.80;;
15712;SDS011;7957;51.608;6.916;2023-06-10T00:09:36;6.00;;;5.50;;
15712;SDS011;7957;51.608;6.916;2023-06-10T00:12:04;6.67;;;6.17;;
15712;SDS011;7957;51.608;6.916;2023-06-10T00:14:31;6.07;;;5.50;;
15712;SDS011;7957;51.608;6.916;2023-06-10T00:16:58;6.00;;;5.50;;
15712;SDS011;7957;51.608;6.916;2023-06-10T00:19:27;6.53;;;6.00;;
15712;SDS011;7957;51.608;6.916;2023-06-10T00:21:55;5.97;;;5.47;;
15712;SDS011;7957;51.608;6.916;2023-06-10T00:24:22;6.30;;;5.80;;
15712;SDS011;7957;51.608;6.916;2023-06-10T00:26:50;6.20;;;5.70;;
15712;SDS011;7957;51.608;6.916;2023-06-10T00:29:17;6.37;;;5.87;;
15712;SDS011;7957;51.608;6.916;2023-06-10T00:31:44;6.50;;;6.00;;
15712;SDS011;7957;51.608;6.916;2023-06-10T00:34:11;6.57;;;5.97;;
15712;SDS011;7957;51.608;6.916;2023-06-10T00:36:39;6.50;;;5.90;;
15712;SDS011;7957;51.608;6.916;2023-06-10T00:39:08;6.20;;;5.70;;
15712;SDS011;7957;51.608;6.916;2023-06-10T00:41:35;6.10;;;5.60;;
15712;SDS011;7957;51.608;6.916;2023-06-10T00:44:02;7.10;;;6.50;;
15712;SDS011;7957;51.608;6.916;2023-06-10T00:46:29;7.13;;;6.20;;
15712;SDS011;7957;51.608;6.916;2023-06-10T00:48:58;7.33;;;6.73;;
15712;SDS011;7957;51.608;6.916;2023-06-10T00:51:26;6.90;;;6.30;;
15712;SDS011;7957;51.608;6.916;2023-06-10T00:53:55;6.90;;;6.30;;
15712;SDS011;7957;51.608;6.916;2023-06-10T00:56:23;6.93;;;6.23;;
15712;SDS011;7957;51.608;6.916;2023-06-10T00:58:50;7.20;;;6.60;;
15712;SDS011;7957;51.608;6.916;2023-06-10T01:01:18;7.13;;;6.50;;
15712;SDS011;7957;51.608;6.916;2023-06-10T01:03:45;6.60;;;6.00;;
15712;SDS011;7957;51.608;6.916;2023-06-10T01:06:14;6.97;;;6.40;;
15712;SDS011;7957;51.608;6.916;2023-06-10T01:08:51;7.23;;;6.53;;
15712;SDS011;7957;51.608;6.916;2023-06-10T01:11:25;6.80;;;6.20;;
15712;SDS011;7957;51.608;6.916;2023-06-10T01:13:55;6.73;;;6.23;;
15712;SDS011;7957;51.608;6.916;2023-06-10T01:16:24;7.00;;;6.40;;
15712;SDS011;7957;51.608;6.916;2023-06-10T01:18:54;7.20;;;6.60;;
15712;SDS011;7957;51.608;6.916;2023-06-10T01:21:30;6.90;;;6.30;;
15712;SDS011;7957;51.608;6.916;2023-06-10T01:23:57;7.70;;;7.00;;
15712;SDS011;7957;51.608;6.916;2023-06-10T01:26:24;7.30;;;6.60;;
15712;SDS011;7957;51.608;6.916;2023-06-10T01:28:57;7.07;;;6.57;;
15712;SDS011;7957;51.608;6.916;2023-06-10T01:31:31;8.10;;;7.40;;
15712;SDS011;7957;51.608;6.916;2023-06-10T01:34:03;7.40;;;6.80;;
15712;SDS011;7957;51.608;6.916;2023-06-10T01:36:35;7.37;;;6.77;;
15712;SDS011;7957;51.608;6.916;2023-06-10T01:39:04;7.33;;;6.63;;
15712;SDS011;7957;51.608;6.916;2023-06-10T01:41:31;8.53;;;7.10;;
15712;SDS011;7957;51.608;6.916;2023-06-10T01:43:59;7.80;;;7.07;;
15712;SDS011;7957;51.608;6.916;2023-06-10T01:46:26;7.30;;;6.70;;
15712;SDS011;7957;51.608;6.916;2023-06-10T01:48:53;7.30;;;6.70;;
15712;SDS011;7957;51.608;6.916;2023-06-10T01:51:20;7.43;;;6.80;;
15712;SDS011;7957;51.608;6.916;2023-06-10T01:53:49;7.77;;;6.97;;
15712;SDS011;7957;51.608;6.916;2023-06-10T01:56:16;7.60;;;7.00;;
15712;SDS011;7957;51.608;6.916;2023-06-10T01:58:45;7.60;;;6.93;;
15712;SDS011;7957;51.608;6.916;2023-06-10T02:01:11;7.70;;;7.00;;
15712;SDS011;7957;51.608;6.916;2023-06-10T02:03:39;8.23;;;7.53;;
15712;SDS011;7957;51.608;6.916;2023-06-10T02:06:06;7.60;;;6.90;;
15712;SDS011;7957;51.608;6.916;2023-06-10T02:08:32;7.87;;;7.27;;
15712;SDS011;7957;51.608;6.916;2023-06-10T02:11:01;7.50;;;6.87;;
15712;SDS011;7957;51.608;6.916;2023-06-10T02:13:28;8.00;;;7.30;;
15712;SDS011;7957;51.608;6.916;2023-06-10T02:15:55;8.03;;;7.13;;
15712;SDS011;7957;51.608;6.916;2023-06-10T02:18:22;7.77;;;7.10;;
15712;SDS011;7957;51.608;6.916;2023-06-10T02:20:48;8.43;;;7.60;;
15712;SDS011;7957;51.608;6.916;2023-06-10T02:23:15;7.70;;;7.10;;
15712;SDS011;7957;51.608;6.916;2023-06-10T02:25:43;8.23;;;7.53;;
15712;SDS011;7957;51.608;6.916;2023-06-10T02:28:13;7.80;;;7.10;;
15712;SDS011;7957;51.608;6.916;2023-06-10T02:30:41;7.60;;;7.00;;
15712;SDS011;7957;51.608;6.916;2023-06-10T02:33:09;8.00;;;7.30;;
15712;SDS011;7957;51.608;6.916;2023-06-10T02:35:36;8.27;;;7.57;;
15712;SDS011;7957;51.608;6.916;2023-06-10T02:38:03;7.93;;;7.23;;
15712;SDS011;7957;51.608;6.916;2023-06-10T02:40:30;7.40;;;6.80;;
15712;SDS011;7957;51.608;6.916;2023-06-10T02:42:57;8.03;;;7.23;;
15712;SDS011;7957;51.608;6.916;2023-06-10T02:45:25;7.93;;;7.30;;
15712;SDS011;7957;51.608;6.916;2023-06-10T02:47:52;8.23;;;7.53;;
15712;SDS011;7957;51.608;6.916;2023-06-10T02:50:19;8.60;;;7.90;;
15712;SDS011;7957;51.608;6.916;2023-06-10T02:52:46;8.43;;;7.70;;
15712;SDS011;7957;51.608;6.916;2023-06-10T02:55:14;8.07;;;7.37;;
15712;SDS011;7957;51.608;6.916;2023-06-10T02:57:41;8.27;;;7.57;;
15712;SDS011;7957;51.608;6.916;2023-06-10T03:00:08;8.00;;;7.30;;
15712;SDS011;7957;51.608;6.916;2023-06-10T03:02:37;7.83;;;7.23;;
15712;SDS011;7957;51.608;6.916;2023-06-10T03:05:05;7.87;;;7.23;;
15712;SDS011;7957;51.608;6.916;2023-06-10T03:07:35;8.43;;;7.00;;
15712;SDS011;7957;51.608;6.916;2023-06-10T03:10:02;8.03;;;7.30;;
15712;SDS011;7957;51.608;6.916;2023-06-10T03:12:30;7.80;;;7.20;;
15712;SDS011;7957;51.608;6.916;2023-06-10T03:14:57;7.93;;;7.30;;
15712;SDS011;7957;51.608;6.916;2023-06-10T03:17:23;7.87;;;7.17;;
15712;SDS011;7957;51.608;6.916;2023-06-10T03:19:52;7.83;;;7.23;;
15712;SDS011;7957;51.608;6.916;2023-06-10T03:22:19;7.33;;;6.73;;
15712;SDS011;7957;51.608;6.916;2023-06-10T03:24:46;7.57;;;6.97;;
15712;SDS011;7957;51.608;6.916;2023-06-10T03:27:15;8.20;;;7.53;;
15712;SDS011;7957;51.608;6.916;2023-06-10T03:29:42;8.47;;;7.67;;
15712;SDS011;7957;51.608;6.916;2023-06-10T03:32:09;7.70;;;7.10;;
15712;SDS011;7957;51.608;6.916;2023-06-10T03:34:36;7.73;;;7.13;;
15712;SDS011;7957;51.608;6.916;2023-06-10T03:37:05;8.00;;;7.33;;
15712;SDS011;7957;51.608;6.916;2023-06-10T03:39:32;8.10;;;7.40;;
15712;SDS011;7957;51.608;6.916;2023-06-10T03:41:59;8.20;;;7.50;;
15712;SDS011;7957;51.608;6.916;2023-06-10T03:44:26;7.80;;;7.13;;
15712;SDS011;7957;51.608;6.916;2023-06-10T03:46:53;7.97;;;7.17;;
15712;SDS011;7957;51.608;6.916;2023-06-10T03:49:21;8.20;;;7.50;;
15712;SDS011;7957;51.608;6.916;2023-06-10T03:51:52;8.20;;;7.50;;
15712;SDS011;7957;51.608;6.916;2023-06-10T03:54:20;7.97;;;7.27;;
15712;SDS011;7957;51.608;6.916;2023-06-10T03:56:47;7.70;;;7.00;;
15712;SDS011;7957;51.608;6.916;2023-06-10T03:59:15;7.67;;;7.03;;
15712;SDS011;7957;51.608;6.916;2023-06-10T04:01:42;7.37;;;6.77;;
15712;SDS011;7957;51.608;6.916;2023-06-10T04:04:09;8.37;;;7.60;;
15712;SDS011;7957;51.608;6.916;2023-06-10T04:06:38;7.93;;;7.23;;
15712;SDS011;7957;51.608;6.916;2023-06-10T04:09:06;8.10;;;7.40;;
15712;SDS011;7957;51.608;6.916;2023-06-10T04:11:36;7.97;;;7.17;;
15712;SDS011;7957;51.608;6.916;2023-06-10T04:14:03;8.23;;;7.53;;
15712;SDS011;7957;51.608;6.916;2023-06-10T04:16:30;7.77;;;7.07;;
15712;SDS011;7957;51.608;6.916;2023-06-10T04:18:57;8.17;;;7.37;;
15712;SDS011;7957;51.608;6.916;2023-06-10T04:21:25;7.80;;;7.10;;
15712;SDS011;7957;51.608;6.916;2023-06-10T04:23:52;8.37;;;7.40;;
15712;SDS011;7957;51.608;6.916;2023-06-10T04:26:19;7.27;;;6.67;;
15712;SDS011;7957;51.608;6.916;2023-06-10T04:28:49;7.77;;;7.13;;
15712;SDS011;7957;51.608;6.916;2023-06-10T04:31:16;7.57;;;6.87;;
15712;SDS011;7957;51.608;6.916;2023-06-10T04:33:43;7.63;;;7.03;;
15712;SDS011;7957;51.608;6.916;2023-06-10T04:36:10;6.80;;;6.20;;
15712;SDS011;7957;51.608;6.916;2023-06-10T04:38:37;8.03;;;7.33;;
15712;SDS011;7957;51.608;6.916;2023-06-10T04:41:05;6.83;;;6.10;;
15712;SDS011;7957;51.608;6.916;2023-06-10T04:43:33;7.70;;;6.90;;
15712;SDS011;7957;51.608;6.916;2023-06-10T04:46:01;7.23;;;6.50;;
15712;SDS011;7957;51.608;6.916;2023-06-10T04:48:28;7.10;;;6.47;;
15712;SDS011;7957;51.608;6.916;2023-06-10T04:50:55;7.37;;;6.77;;
15712;SDS011;7957;51.608;6.916;2023-06-10T04:53:23;7.37;;;6.73;;
15712;SDS011;7957;51.608;6.916;2023-06-10T04:55:51;7.00;;;6.40;;
15712;SDS011;7957;51.608;6.916;2023-06-10T04:58:18;6.93;;;6.33;;
15712;SDS011;7957;51.608;6.916;2023-06-10T05:00:45;7.67;;;6.97;;
15712;SDS011;7957;51.608;6.916;2023-06-10T05:03:14;7.00;;;6.40;;
15712;SDS011;7957;51.608;6.916;2023-06-10T05:05:41;7.20;;;6.60;;
15712;SDS011;7957;51.608;6.916;2023-06-10T05:08:08;6.50;;;6.00;;
15712;SDS011;7957;51.608;6.916;2023-06-10T05:10:35;7.13;;;6.47;;
15712;SDS011;7957;51.608;6.916;2023-06-10T05:13:02;6.83;;;6.20;;
15712;SDS011;7957;51.608;6.916;2023-06-10T05:15:29;7.27;;;6.53;;
15712;SDS011;7957;51.608;6.916;2023-06-10T05:17:57;6.50;;;5.90;;
15712;SDS011;7957;51.608;6.916;2023-06-10T05:20:29;6.90;;;6.30;;
15712;SDS011;7957;51.608;6.916;2023-06-10T05:22:56;6.87;;;6.27;;
15712;SDS011;7957;51.608;6.916;2023-06-10T05:25:26;7.23;;;6.53;;
15712;SDS011;7957;51.608;6.916;2023-06-10T05:27:56;6.53;;;6.00;;
15712;SDS011;7957;51.608;6.916;2023-06-10T05:30:23;7.27;;;6.53;;
15712;SDS011;7957;51.608;6.916;2023-06-10T05:32:51;6.63;;;6.03;;
15712;SDS011;7957;51.608;6.916;2023-06-10T05:35:19;6.67;;;6.03;;
15712;SDS011;7957;51.608;6.916;2023-06-10T05:37:48;7.23;;;6.07;;
15712;SDS011;7957;51.608;6.916;2023-06-10T05:40:15;6.70;;;6.10;;
15712;SDS011;7957;51.608;6.916;2023-06-10T05:42:42;7.07;;;6.37;;
15712;SDS011;7957;51.608;6.916;2023-06-10T05:45:09;6.00;;;5.50;;
15712;SDS011;7957;51.608;6.916;2023-06-10T05:47:36;6.53;;;5.93;;
15712;SDS011;7957;51.608;6.916;2023-06-10T05:50:04;6.43;;;5.83;;
15712;SDS011;7957;51.608;6.916;2023-06-10T05:52:32;6.20;;;5.70;;
15712;SDS011;7957;51.608;6.916;2023-06-10T05:55:00;6.17;;;5.57;;
15712;SDS011;7957;51.608;6.916;2023-06-10T05:57:27;6.20;;;5.70;;
15712;SDS011;7957;51.608;6.916;2023-06-10T05:59:54;6.37;;;5.77;;
15712;SDS011;7957;51.608;6.916;2023-06-10T06:02:21;6.27;;;5.67;;
15712;SDS011;7957;51.608;6.916;2023-06-10T06:04:48;5.80;;;5.30;;
15712;SDS011;7957;51.608;6.916;2023-06-10T06:07:15;6.23;;;5.67;;
15712;SDS011;7957;51.608;6.916;2023-06-10T06:09:42;6.37;;;5.60;;
15712;SDS011;7957;51.608;6.916;2023-06-10T06:12:10;5.90;;;5.30;;
15712;SDS011;7957;51.608;6.916;2023-06-10T06:14:38;5.83;;;5.20;;
15712;SDS011;7957;51.608;6.916;2023-06-10T06:17:05;5.60;;;5.10;;
15712;SDS011;7957;51.608;6.916;2023-06-10T06:19:32;5.83;;;5.27;;
15712;SDS011;7957;51.608;6.916;2023-06-10T06:21:59;5.83;;;5.33;;
15712;SDS011;7957;51.608;6.916;2023-06-10T06:24:26;5.67;;;5.10;;
15712;SDS011;7957;51.608;6.916;2023-06-10T06:26:53;5.63;;;5.13;;
15712;SDS011;7957;51.608;6.916;2023-06-10T06:29:21;5.50;;;5.00;;
15712;SDS011;7957;51.608;6.916;2023-06-10T06:31:48;5.23;;;4.73;;
15712;SDS011;7957;51.608;6.916;2023-06-10T06:34:15;5.73;;;5.13;;
15712;SDS011;7957;51.608;6.916;2023-06-10T06:36:42;6.43;;;5.00;;
15712;SDS011;7957;51.608;6.916;2023-06-10T06:39:12;5.70;;;5.07;;
15712;SDS011;7957;51.608;6.916;2023-06-10T06:41:39;6.07;;;4.90;;
15712;SDS011;7957;51.608;6.916;2023-06-10T06:44:06;7.10;;;5.63;;
15712;SDS011;7957;51.608;6.916;2023-06-10T06:46:35;6.50;;;5.60;;
15712;SDS011;7957;51.608;6.916;2023-06-10T06:49:02;5.70;;;5.20;;
15712;SDS011;7957;51.608;6.916;2023-06-10T06:51:29;5.53;;;5.10;;
15712;SDS011;7957;51.608;6.916;2023-06-10T06:53:55;5.70;;;4.90;;
15712;SDS011;7957;51.608;6.916;2023-06-10T06:56:24;5.77;;;5.13;;
15712;SDS011;7957;51.608;6.916;2023-06-10T06:58:52;6.67;;;5.37;;
15712;SDS011;7957;51.608;6.916;2023-06-10T07:01:18;5.93;;;5.30;;
15712;SDS011;7957;51.608;6.916;2023-06-10T07:03:47;5.70;;;5.10;;
15712;SDS011;7957;51.608;6.916;2023-06-10T07:06:15;5.23;;;4.73;;
15712;SDS011;7957;51.608;6.916;2023-06-10T07:08:42;8.57;;;5.07;;
15712;SDS011;7957;51.608;6.916;2023-06-10T07:11:09;6.00;;;5.00;;
15712;SDS011;7957;51.608;6.916;2023-06-10T07:13:36;7.63;;;5.27;;
15712;SDS011;7957;51.608;6.916;2023-06-10T07:16:03;5.40;;;5.00;;
15712;SDS011;7957;51.608;6.916;2023-06-10T07:18:31;6.73;;;5.53;;
15712;SDS011;7957;51.608;6.916;2023-06-10T07:20:59;5.93;;;5.33;;
15712;SDS011;7957;51.608;6.916;2023-06-10T07:23:26;6.97;;;5.10;;
15712;SDS011;7957;51.608;6.916;2023-06-10T07:25:53;7.20;;;5.30;;
15712;SDS011;7957;51.608;6.916;2023-06-10T07:28:20;4.97;;;4.47;;
15712;SDS011;7957;51.608;6.916;2023-06-10T07:30:47;5.47;;;4.97;;
15712;SDS011;7957;51.608;6.916;2023-06-10T07:33:14;6.03;;;5.20;;
15712;SDS011;7957;51.608;6.916;2023-06-10T07:35:41;5.70;;;5.20;;
15712;SDS011;7957;51.608;6.916;2023-06-10T07:38:10;5.77;;;4.87;;
15712;SDS011;7957;51.608;6.916;2023-06-10T07:40:37;5.03;;;4.53;;
15712;SDS011;7957;51.608;6.916;2023-06-10T07:43:03;6.10;;;5.57;;
15712;SDS011;7957;51.608;6.916;2023-06-10T07:45:30;5.80;;;4.67;;
15712;SDS011;7957;51.608;6.916;2023-06-10T07:47:57;6.67;;;5.30;;
15712;SDS011;7957;51.608;6.916;2023-06-10T07:50:24;6.53;;;4.97;;
15712;SDS011;7957;51.608;6.916;2023-06-10T07:52:51;6.87;;;5.10;;
15712;SDS011;7957;51.608;6.916;2023-06-10T07:55:20;5.50;;;4.97;;
15712;SDS011;7957;51.608;6.916;2023-06-10T07:57:46;7.10;;;5.23;;
15712;SDS011;7957;51.608;6.916;2023-06-10T08:00:14;7.70;;;4.87;;
15712;SDS011;7957;51.608;6.916;2023-06-10T08:02:42;5.20;;;4.77;;
15712;SDS011;7957;51.608;6.916;2023-06-10T08:05:09;9.10;;;4.87;;
15712;SDS011;7957;51.608;6.916;2023-06-10T08:07:36;5.33;;;4.83;;
15712;SDS011;7957;51.608;6.916;2023-06-10T08:10:03;5.93;;;5.30;;
15712;SDS011;7957;51.608;6.916;2023-06-10T08:12:33;5.47;;;5.00;;
15712;SDS011;7957;51.608;6.916;2023-06-10T08:15:00;9.30;;;6.83;;
15712;SDS011;7957;51.608;6.916;2023-06-10T08:17:29;6.63;;;5.83;;
15712;SDS011;7957;51.608;6.916;2023-06-10T08:19:56;7.30;;;6.07;;
15712;SDS011;7957;51.608;6.916;2023-06-10T08:22:23;10.60;;;5.37;;
15712;SDS011;7957;51.608;6.916;2023-06-10T08:24:50;9.40;;;5.30;;
15712;SDS011;7957;51.608;6.916;2023-06-10T08:27:17;6.17;;;5.33;;
15712;SDS011;7957;51.608;6.916;2023-06-10T08:29:45;15.67;;;6.07;;
15712;SDS011;7957;51.608;6.916;2023-06-10T08:32:12;137.53;;;12.40;;
15712;SDS011;7957;51.608;6.916;2023-06-10T08:34:39;103.73;;;13.27;;
15712;SDS011;7957;51.608;6.916;2023-06-10T08:37:07;60.83;;;10.93;;
15712;SDS011;7957;51.608;6.916;2023-06-10T08:39:34;26.77;;;7.70;;
15712;SDS011;7957;51.608;6.916;2023-06-10T08:42:04;32.47;;;7.77;;
15712;SDS011;7957;51.608;6.916;2023-06-10T08:44:37;19.97;;;6.97;;
15712;SDS011;7957;51.608;6.916;2023-06-10T08:47:10;20.33;;;6.30;;
15712;SDS011;7957;51.608;6.916;2023-06-10T08:49:43;18.90;;;6.33;;
15712;SDS011;7957;51.608;6.916;2023-06-10T08:52:11;10.37;;;5.73;;
15712;SDS011;7957;51.608;6.916;2023-06-10T08:54:42;15.77;;;6.37;;
15712;SDS011;7957;51.608;6.916;2023-06-10T08:57:11;12.10;;;6.13;;
15712;SDS011;7957;51.608;6.916;2023-06-10T08:59:39;13.63;;;6.13;;
15712;SDS011;7957;51.608;6.916;2023-06-10T09:02:09;9.93;;;6.10;;
15712;SDS011;7957;51.608;6.916;2023-06-10T09:04:36;11.90;;;5.77;;
15712;SDS011;7957;51.608;6.916;2023-06-10T09:07:04;11.97;;;5.60;;
15712;SDS011;7957;51.608;6.916;2023-06-10T09:09:32;10.37;;;5.60;;
15712;SDS011;7957;51.608;6.916;2023-06-10T09:12:02;7.60;;;5.47;;
15712;SDS011;7957;51.608;6.916;2023-06-10T09:14:30;9.47;;;5.40;;
15712;SDS011;7957;51.608;6.916;2023-06-10T09:16:57;7.90;;;5.47;;
15712;SDS011;7957;51.608;6.916;2023-06-10T09:19:26;7.07;;;5.17;;
15712;SDS011;7957;51.608;6.916;2023-06-10T09:21:54;8.53;;;5.03;;
15712;SDS011;7957;51.608;6.916;2023-06-10T09:24:21;6.83;;;5.20;;
15712;SDS011;7957;51.608;6.916;2023-06-10T09:26:48;7.37;;;5.03;;
15712;SDS011;7957;51.608;6.916;2023-06-10T09:29:16;6.50;;;4.57;;
15712;SDS011;7957;51.608;6.916;2023-06-10T09:31:43;8.80;;;5.53;;
15712;SDS011;7957;51.608;6.916;2023-06-10T09:34:11;9.17;;;5.50;;
15712;SDS011;7957;51.608;6.916;2023-06-10T09:36:40;7.90;;;5.40;;
15712;SDS011;7957;51.608;6.916;2023-06-10T09:39:13;7.93;;;4.90;;
15712;SDS011;7957;51.608;6.916;2023-06-10T09:41:42;6.97;;;5.50;;
15712;SDS011;7957;51.608;6.916;2023-06-10T09:44:11;5.87;;;4.93;;
15712;SDS011;7957;51.608;6.916;2023-06-10T09:46:40;8.33;;;5.67;;
15712;SDS011;7957;51.608;6.916;2023-06-10T09:49:07;6.00;;;5.40;;
15712;SDS011;7957;51.608;6.916;2023-06-10T09:51:35;5.73;;;4.87;;
15712;SDS011;7957;51.608;6.916;2023-06-10T09:54:03;8.27;;;5.50;;
15712;SDS011;7957;51.608;6.916;2023-06-10T09:56:34;7.93;;;5.33;;
15712;SDS011;7957;51.608;6.916;2023-06-10T09:59:02;6.33;;;5.20;;
15712;SDS011;7957;51.608;6.916;2023-06-10T10:01:31;8.17;;;5.57;;
15712;SDS011;7957;51.608;6.916;2023-06-10T10:03:58;7.10;;;5.20;;
15712;SDS011;7957;51.608;6.916;2023-06-10T10:06:26;8.00;;;5.60;;
15712;SDS011;7957;51.608;6.916;2023-06-10T10:08:53;5.80;;;5.00;;
15712;SDS011;7957;51.608;6.916;2023-06-10T10:11:22;8.47;;;5.23;;
15712;SDS011;7957;51.608;6.916;2023-06-10T10:13:51;5.97;;;4.90;;
15712;SDS011;7957;51.608;6.916;2023-06-10T10:16:19;8.00;;;5.23;;
15712;SDS011;7957;51.608;6.916;2023-06-10T10:18:49;5.50;;;5.10;;
15712;SDS011;7957;51.608;6.916;2023-06-10T10:21:21;6.30;;;5.43;;
15712;SDS011;7957;51.608;6.916;2023-06-10T10:23:52;5.77;;;5.20;;
15712;SDS011;7957;51.608;6.916;2023-06-10T10:26:25;5.87;;;5.20;;
15712;SDS011;7957;51.608;6.916;2023-06-10T10:28:55;5.40;;;4.90;;
15712;SDS011;7957;51.608;6.916;2023-06-10T10:31:32;6.97;;;5.13;;
15712;SDS011;7957;51.608;6.916;2023-06-10T10:34:02;5.07;;;4.72;;
15712;SDS011;7957;51.608;6.916;2023-06-10T10:36:32;6.27;;;4.90;;
15712;SDS011;7957;51.608;6.916;2023-06-10T10:39:01;5.83;;;5.30;;
15712;SDS011;7957;51.608;6.916;2023-06-10T10:41:30;5.40;;;4.90;;
15712;SDS011;7957;51.608;6.916;2023-06-10T10:44:00;5.82;;;5.32;;
15712;SDS011;7957;51.608;6.916;2023-06-10T10:46:27;6.30;;;5.15;;
15712;SDS011;7957;51.608;6.916;2023-06-10T10:48:56;5.80;;;5.30;;
15712;SDS011;7957;51.608;6.916;2023-06-10T10:51:27;6.78;;;5.00;;
15712;SDS011;7957;51.608;6.916;2023-06-10T10:54:09;6.82;;;5.15;;
15712;SDS011;7957;51.608;6.916;2023-06-10T10:56:39;6.10;;;5.60;;
15712;SDS011;7957;51.608;6.916;2023-06-10T10:59:06;5.30;;;4.80;;
15712;SDS011;7957;51.608;6.916;2023-06-10T11:01:40;6.85;;;4.78;;
15712;SDS011;7957;51.608;6.916;2023-06-10T11:04:10;5.97;;;5.30;;
15712;SDS011;7957;51.608;6.916;2023-06-10T11:06:37;5.53;;;5.03;;
15712;SDS011;7957;51.608;6.916;2023-06-10T11:11:55;9.90;;;5.03;;
15712;SDS011;7957;51.608;6.916;2023-06-10T11:14:26;7.07;;;5.05;;
15712;SDS011;7957;51.608;6.916;2023-06-10T11:16:56;5.30;;;4.85;;
15712;SDS011;7957;51.608;6.916;2023-06-10T11:19:31;10.30;;;4.85;;
15712;SDS011;7957;51.608;6.916;2023-06-10T11:21:59;5.30;;;4.82;;
15712;SDS011;7957;51.608;6.916;2023-06-10T11:24:28;5.13;;;4.65;;
15712;SDS011;7957;51.608;6.916;2023-06-10T11:32:45;7.78;;;4.72;;
15712;SDS011;7957;51.608;6.916;2023-06-10T11:35:18;6.68;;;4.47;;
15712;SDS011;7957;51.608;6.916;2023-06-10T11:37:46;5.90;;;5.28;;
15712;SDS011;7957;51.608;6.916;2023-06-10T11:40:13;6.40;;;4.70;;
15712;SDS011;7957;51.608;6.916;2023-06-10T11:42:42;6.93;;;4.72;;
15712;SDS011;7957;51.608;6.916;2023-06-10T11:45:14;6.45;;;5.07;;
15712;SDS011;7957;51.608;6.916;2023-06-10T11:47:42;4.68;;;4.13;;
15712;SDS011;7957;51.608;6.916;2023-06-10T11:50:27;6.05;;;4.75;;
15712;SDS011;7957;51.608;6.916;2023-06-10T11:52:55;5.30;;;4.75;;
15712;SDS011;7957;51.608;6.916;2023-06-10T11:55:23;7.40;;;4.60;;
15712;SDS011;7957;51.608;6.916;2023-06-10T11:57:52;5.70;;;4.68;;
15712;SDS011;7957;51.608;6.916;2023-06-10T12:00:22;6.43;;;5.45;;
15712;SDS011;7957;51.608;6.916;2023-06-10T12:02:54;7.35;;;4.68;;
15712;SDS011;7957;51.608;6.916;2023-06-10T12:05:23;5.75;;;4.78;;
15712;SDS011;7957;51.608;6.916;2023-06-10T12:10:39;5.15;;;4.65;;
15712;SDS011;7957;51.608;6.916;2023-06-10T12:13:08;6.38;;;4.80;;
15712;SDS011;7957;51.608;6.916;2023-06-10T12:15:35;5.45;;;4.40;;
15712;SDS011;7957;51.608;6.916;2023-06-10T12:18:05;5.13;;;4.63;;
15712;SDS011;7957;51.608;6.916;2023-06-10T12:20:35;5.50;;;4.50;;
15712;SDS011;7957;51.608;6.916;2023-06-10T12:23:08;7.70;;;4.85;;
15712;SDS011;7957;51.608;6.916;2023-06-10T12:25:36;5.30;;;4.80;;
15712;SDS011;7957;51.608;6.916;2023-06-10T12:28:04;5.50;;;4.63;;
15712;SDS011;7957;51.608;6.916;2023-06-10T12:30:33;5.28;;;4.68;;
15712;SDS011;7957;51.608;6.916;2023-06-10T12:33:00;9.55;;;4.90;;
15712;SDS011;7957;51.608;6.916;2023-06-10T12:35:28;4.97;;;4.55;;
15712;SDS011;7957;51.608;6.916;2023-06-10T12:37:55;5.55;;;5.05;;
15712;SDS011;7957;51.608;6.916;2023-06-10T12:40:31;6.95;;;4.85;;
15712;SDS011;7957;51.608;6.916;2023-06-10T12:42:59;5.00;;;4.60;;
15712;SDS011;7957;51.608;6.916;2023-06-10T12:45:26;5.07;;;4.57;;
15712;SDS011;7957;51.608;6.916;2023-06-10T12:48:06;4.93;;;4.50;;
15712;SDS011;7957;51.608;6.916;2023-06-10T12:50:34;4.55;;;4.15;;
15712;SDS011;7957;51.608;6.916;2023-06-10T12:53:04;5.13;;;4.72;;
15712;SDS011;7957;51.608;6.916;2023-06-10T12:55:39;5.68;;;4.85;;
15712;SDS011;7957;51.608;6.916;2023-06-10T12:58:13;8.82;;;4.72;;
15712;SDS011;7957;51.608;6.916;2023-06-10T13:00:40;5.53;;;4.90;;
15712;SDS011;7957;51.608;6.916;2023-06-10T13:03:11;5.45;;;4.95;;
15712;SDS011;7957;51.608;6.916;2023-06-10T13:05:38;5.32;;;4.50;;
15712;SDS011;7957;51.608;6.916;2023-06-10T13:08:10;4.90;;;4.50;;
15712;SDS011;7957;51.608;6.916;2023-06-10T13:10:38;6.75;;;4.68;;
15712;SDS011;7957;51.608;6.916;2023-06-10T13:13:05;5.35;;;4.85;;
15712;SDS011;7957;51.608;6.916;2023-06-10T13:15:34;5.25;;;4.22;;
15712;SDS011;7957;51.608;6.916;2023-06-10T13:18:02;6.22;;;4.38;;
15712;SDS011;7957;51.608;6.916;2023-06-10T13:20:30;5.03;;;4.60;;
15712;SDS011;7957;51.608;6.916;2023-06-10T13:22:57;6.35;;;4.80;;
15712;SDS011;7957;51.608;6.916;2023-06-10T13:25:24;4.97;;;4.47;;
15712;SDS011;7957;51.608;6.916;2023-06-10T13:27:51;5.70;;;5.20;;
15712;SDS011;7957;51.608;6.916;2023-06-10T13:30:18;7.95;;;4.72;;
15712;SDS011;7957;51.608;6.916;2023-06-10T13:32:45;5.63;;;5.03;;
15712;SDS011;7957;51.608;6.916;2023-06-10T13:35:12;7.13;;;4.50;;
15712;SDS011;7957;51.608;6.916;2023-06-10T13:37:40;7.43;;;4.47;;
15712;SDS011;7957;51.608;6.916;2023-06-10T13:40:08;4.78;;;4.38;;
15712;SDS011;7957;51.608;6.916;2023-06-10T13:42:35;7.60;;;4.60;;
15712;SDS011;7957;51.608;6.916;2023-06-10T13:45:06;7.30;;;4.93;;
15712;SDS011;7957;51.608;6.916;2023-06-10T13:47:34;4.85;;;4.38;;
15712;SDS011;7957;51.608;6.916;2023-06-10T13:50:01;5.22;;;4.72;;
15712;SDS011;7957;51.608;6.916;2023-06-10T13:52:28;5.13;;;4.50;;
15712;SDS011;7957;51.608;6.916;2023-06-10T13:54:56;6.45;;;4.93;;
15712;SDS011;7957;51.608;6.916;2023-06-10T13:57:23;5.93;;;4.90;;
15712;SDS011;7957;51.608;6.916;2023-06-10T13:59:50;6.18;;;4.70;;
15712;SDS011;7957;51.608;6.916;2023-06-10T14:02:17;5.15;;;4.65;;
15712;SDS011;7957;51.608;6.916;2023-06-10T14:04:44;5.15;;;4.60;;
15712;SDS011;7957;51.608;6.916;2023-06-10T14:07:12;5.60;;;4.78;;
15712;SDS011;7957;51.608;6.916;2023-06-10T14:09:38;6.68;;;4.88;;
15712;SDS011;7957;51.608;6.916;2023-06-10T14:12:07;5.82;;;4.47;;
15712;SDS011;7957;51.608;6.916;2023-06-10T14:14:35;5.38;;;4.88;;
15712;SDS011;7957;51.608;6.916;2023-06-10T14:17:03;6.18;;;4.75;;
15712;SDS011;7957;51.608;6.916;2023-06-10T14:19:30;5.50;;;5.10;;
15712;SDS011;7957;51.608;6.916;2023-06-10T14:21:57;5.75;;;5.22;;
15712;SDS011;7957;51.608;6.916;2023-06-10T14:24:24;5.20;;;4.70;;
15712;SDS011;7957;51.608;6.916;2023-06-10T14:26:51;5.70;;;5.05;;
15712;SDS011;7957;51.608;6.916;2023-06-10T14:29:19;5.40;;;4.90;;
15712;SDS011;7957;51.608;6.916;2023-06-10T14:31:47;7.05;;;5.30;;
15712;SDS011;7957;51.608;6.916;2023-06-10T14:34:14;8.07;;;5.28;;
15712;SDS011;7957;51.608;6.916;2023-06-10T14:36:40;5.82;;;4.97;;
15712;SDS011;7957;51.608;6.916;2023-06-10T14:39:07;6.13;;;5.13;;
15712;SDS011;7957;51.608;6.916;2023-06-10T14:41:34;5.97;;;5.40;;
15712;SDS011;7957;51.608;6.916;2023-06-10T14:44:01;5.57;;;5.00;;
15712;SDS011;7957;51.608;6.916;2023-06-10T14:46:30;5.30;;;4.90;;
15712;SDS011;7957;51.608;6.916;2023-06-10T14:48:58;6.55;;;4.55;;
15712;SDS011;7957;51.608;6.916;2023-06-10T14:51:27;7.78;;;5.00;;
15712;SDS011;7957;51.608;6.916;2023-06-10T14:53:54;5.47;;;5.00;;
15712;SDS011;7957;51.608;6.916;2023-06-10T14:56:21;6.75;;;4.72;;
15712;SDS011;7957;51.608;6.916;2023-06-10T14:58:48;5.20;;;4.70;;
15712;SDS011;7957;51.608;6.916;2023-06-10T15:01:15;6.72;;;5.15;;
15712;SDS011;7957;51.608;6.916;2023-06-10T15:03:43;5.60;;;5.10;;
15712;SDS011;7957;51.608;6.916;2023-06-10T15:06:10;7.10;;;5.10;;
15712;SDS011;7957;51.608;6.916;2023-06-10T15:08:37;8.68;;;5.07;;
15712;SDS011;7957;51.608;6.916;2023-06-10T15:11:04;5.65;;;5.00;;
15712;SDS011;7957;51.608;6.916;2023-06-10T15:13:32;5.75;;;5.10;;
15712;SDS011;7957;51.608;6.916;2023-06-10T15:15:59;6.05;;;5.20;;
15712;SDS011;7957;51.608;6.916;2023-06-10T15:18:25;6.53;;;5.10;;